createdAt,value
2022-09-02T08:41:32.819Z,16.80
2022-09-02T08:44:02.379Z,17.10
2022-09-02T08:46:32.008Z,17.30
2022-09-02T08:49:13.643Z,17.30
2022-09-02T08:54:36.447Z,18.00
2022-09-02T08:57:03.356Z,18.30
2022-09-02T08:59:31.534Z,18.30
2022-09-02T09:02:20.374Z,18.50
2022-09-02T09:05:20.754Z,18.60
2022-09-02T09:08:13.921Z,18.90
2022-09-02T09:11:21.015Z,19.10
2022-09-02T09:14:15.644Z,19.30
2022-09-02T09:16:59.381Z,19.20
2022-09-02T09:19:45.927Z,19.70
2022-09-02T09:22:15.807Z,19.90
2022-09-02T09:24:45.260Z,19.90
2022-09-02T09:27:20.764Z,20.20
2022-09-02T09:29:49.292Z,20.50
2022-09-02T09:32:25.627Z,20.60
2022-09-02T09:34:52.313Z,20.80
2022-09-02T09:37:40.868Z,21.10
2022-09-02T09:40:23.036Z,21.10
2022-09-02T09:42:59.767Z,21.00
2022-09-02T09:45:44.244Z,21.40
2022-09-02T09:48:13.936Z,21.60
2022-09-02T09:53:35.481Z,22.00
2022-09-02T09:56:07.592Z,22.00
2022-09-02T09:58:40.064Z,22.00
2022-09-02T10:01:21.685Z,22.40
2022-09-02T10:04:12.206Z,22.50
2022-09-02T10:06:48.818Z,22.60
2022-09-02T10:09:15.387Z,22.40
2022-09-02T10:12:06.403Z,22.50
2022-09-02T10:14:46.096Z,22.10
2022-09-02T10:31:53.442Z,23.10
2022-09-02T10:34:48.907Z,23.40
2022-09-02T10:39:54.973Z,23.70
2022-09-02T10:42:38.773Z,23.70
2022-09-02T10:45:17.855Z,23.70
2022-09-02T10:48:09.373Z,23.90
2022-09-02T10:50:50.150Z,24.00
2022-09-02T10:53:44.175Z,24.30
2022-09-02T10:56:13.914Z,24.50
2022-09-02T11:01:44.474Z,24.40
2022-09-02T11:04:26.036Z,24.30
2022-09-02T11:07:03.686Z,24.20
2022-09-02T11:09:56.559Z,24.00
2022-09-02T11:12:32.876Z,24.20
2022-09-02T11:15:22.180Z,24.30
2022-09-02T11:18:10.358Z,24.40
2022-09-02T11:20:47.240Z,24.60
2022-09-02T11:23:25.365Z,24.60
2022-09-02T11:26:09.992Z,24.50
2022-09-02T11:28:54.428Z,24.60
2022-09-02T11:31:38.898Z,24.60
2022-09-02T11:34:35.393Z,24.60
2022-09-02T11:45:33.297Z,24.80
2022-09-02T11:48:29.457Z,24.90
2022-09-02T11:51:23.530Z,25.00
2022-09-02T11:53:54.935Z,24.80
2022-09-02T11:56:35.152Z,24.90
2022-09-02T11:59:01.726Z,25.00
2022-09-02T12:01:50.757Z,24.90
2022-09-02T12:07:12.793Z,24.20
2022-09-02T12:12:36.876Z,24.10
2022-09-02T12:15:04.838Z,23.90
2022-09-02T12:17:39.998Z,24.00
2022-09-02T12:20:10.054Z,24.20
2022-09-02T12:22:40.868Z,24.20
2022-09-02T12:25:38.502Z,24.40
2022-09-02T12:28:26.336Z,24.50
2022-09-02T12:30:56.379Z,24.50
2022-09-02T12:33:30.834Z,24.60
2022-09-02T12:35:59.020Z,24.60
2022-09-02T12:38:27.944Z,24.60
2022-09-02T12:41:05.586Z,24.50
2022-09-02T12:43:53.435Z,24.50
2022-09-02T12:46:36.704Z,24.60
2022-09-02T12:49:34.461Z,24.30
2022-09-02T12:52:12.495Z,24.30
2022-09-02T12:54:38.997Z,24.60
2022-09-02T12:57:08.243Z,24.60
2022-09-02T12:59:38.162Z,24.70
2022-09-02T13:02:35.167Z,24.60
2022-09-02T13:05:20.372Z,24.50
2022-09-02T13:08:02.613Z,24.60
2022-09-02T13:10:56.188Z,24.80
2022-09-02T13:13:41.635Z,24.60
2022-09-02T13:16:21.435Z,24.60
2022-09-02T13:19:10.879Z,24.40
2022-09-02T13:22:14.488Z,24.60
2022-09-02T13:24:59.264Z,24.60
2022-09-02T13:27:49.389Z,24.70
2022-09-02T13:30:32.251Z,24.70
2022-09-02T13:33:07.199Z,24.60
2022-09-02T13:35:38.291Z,24.60
2022-09-02T13:38:05.489Z,24.50
2022-09-02T13:40:34.556Z,24.70
2022-09-02T13:43:21.841Z,24.60
2022-09-02T13:45:51.102Z,24.40
2022-09-02T13:48:22.806Z,24.50
2022-09-02T13:50:51.763Z,24.60
2022-09-02T13:53:49.412Z,24.60
2022-09-02T13:56:30.761Z,24.50
2022-09-02T13:58:57.439Z,24.50
2022-09-02T14:01:29.394Z,24.30
2022-09-02T14:03:58.687Z,24.40
2022-09-02T14:06:36.546Z,24.20
2022-09-02T14:09:07.642Z,24.20
2022-09-02T14:11:42.870Z,24.10
2022-09-02T14:14:15.109Z,24.00
2022-09-02T14:16:41.660Z,24.00
2022-09-02T14:19:22.636Z,23.70
2022-09-02T14:21:58.522Z,23.70
2022-09-02T14:24:28.117Z,23.40
2022-09-02T14:26:59.696Z,23.30
2022-09-02T14:29:29.536Z,23.40
2022-09-02T14:32:13.664Z,23.30
2022-09-02T14:34:47.668Z,23.30
2022-09-02T14:37:47.520Z,23.20
2022-09-02T14:40:14.474Z,23.20
2022-09-02T15:16:03.417Z,22.30
2022-09-02T15:18:30.407Z,22.20
2022-09-02T15:20:57.624Z,22.00
2022-09-02T15:23:24.755Z,22.10
2022-09-02T15:25:53.179Z,22.10
2022-09-02T15:28:19.786Z,22.00
2022-09-02T15:30:46.385Z,22.00
2022-09-02T15:35:44.364Z,21.90
2022-09-02T15:38:10.942Z,22.00
2022-09-02T15:43:04.484Z,21.70
2022-09-02T15:45:31.204Z,21.70
2022-09-02T15:47:58.803Z,21.70
2022-09-02T15:52:56.101Z,21.70
2022-09-02T15:55:29.008Z,21.60
2022-09-02T15:57:56.456Z,21.50
2022-09-02T16:00:23.551Z,21.50
2022-09-02T16:02:54.654Z,21.40
2022-09-02T16:05:21.288Z,21.30
2022-09-02T16:10:15.210Z,21.20
2022-09-02T16:12:42.051Z,21.20
2022-09-02T16:17:36.180Z,21.20
2022-09-02T16:20:04.756Z,21.10
2022-09-02T16:22:31.393Z,21.10
2022-09-02T16:27:43.551Z,21.10
2022-09-02T16:30:10.531Z,21.10
2022-09-02T16:32:37.782Z,21.10
2022-09-02T16:35:04.617Z,21.10
2022-09-02T16:39:58.418Z,21.00
2022-09-02T16:42:25.952Z,20.90
2022-09-02T16:47:19.963Z,20.80
2022-09-02T16:49:46.591Z,20.70
2022-09-02T16:52:13.235Z,20.60
2022-09-02T16:54:40.944Z,20.60
2022-09-02T16:59:35.893Z,20.40
2022-09-02T17:02:02.559Z,20.40
2022-09-02T17:04:29.607Z,20.40
2022-09-02T17:06:56.634Z,20.30
2022-09-02T17:09:23.223Z,20.20
2022-09-02T17:11:50.006Z,20.20
2022-09-02T17:14:21.518Z,20.10
2022-09-02T17:16:50.963Z,20.10
2022-09-02T17:19:22.758Z,20.00
2022-09-02T17:21:54.190Z,20.00
2022-09-02T17:24:23.612Z,19.90
2022-09-02T17:29:47.484Z,19.70
2022-09-02T17:32:07.732Z,19.60
2022-09-02T17:34:34.489Z,19.50
2022-09-02T17:37:01.177Z,19.50
2022-09-02T17:39:28.080Z,19.40
2022-09-02T17:41:54.740Z,19.20
2022-09-02T17:44:24.273Z,19.20
2022-09-02T17:46:51.694Z,19.10
2022-09-02T17:49:18.735Z,19.10
2022-09-02T17:51:46.563Z,19.00
2022-09-02T17:54:14.104Z,19.00
2022-09-02T17:56:46.133Z,19.00
2022-09-02T17:59:20.561Z,18.90
2022-09-02T18:02:11.416Z,18.90
2022-09-02T18:04:55.627Z,18.70
2022-09-02T18:07:53.446Z,18.60
2022-09-02T18:10:20.372Z,18.50
2022-09-02T18:12:48.125Z,18.40
2022-09-02T18:15:18.723Z,18.40
2022-09-02T18:17:52.490Z,18.40
2022-09-02T18:20:43.446Z,18.10
2022-09-02T18:23:23.355Z,18.10
2022-09-02T18:26:19.849Z,18.00
2022-09-02T18:29:12.407Z,17.90
2022-09-02T18:31:57.196Z,18.00
2022-09-02T18:37:32.786Z,17.70
2022-09-02T18:40:29.379Z,17.80
2022-09-02T18:43:19.737Z,17.50
2022-09-02T18:45:56.383Z,17.40
2022-09-02T18:48:34.388Z,17.40
2022-09-02T18:51:03.846Z,17.40
2022-09-02T18:56:06.101Z,17.30
2022-09-02T18:58:46.866Z,17.20
2022-09-02T19:01:26.162Z,17.10
2022-09-02T19:03:53.053Z,17.10
2022-09-02T19:06:24.975Z,17.10
2022-09-02T19:08:58.401Z,16.90
2022-09-02T19:46:44.051Z,16.20
2022-09-02T19:49:02.397Z,16.10
2022-09-02T19:51:28.980Z,16.10
2022-09-02T19:53:56.517Z,16.00
2022-09-02T19:56:23.281Z,15.90
2022-09-02T19:58:49.969Z,16.00
2022-09-02T20:01:16.672Z,15.90
2022-09-02T20:03:43.356Z,16.00
2022-09-02T20:06:09.893Z,15.80
2022-09-02T20:08:36.611Z,15.80
2022-09-02T20:11:05.111Z,15.70
2022-09-02T20:13:41.094Z,15.70
2022-09-02T20:16:17.142Z,15.60
2022-09-02T20:18:48.290Z,15.60
2022-09-02T20:21:31.019Z,15.50
2022-09-02T20:24:07.164Z,15.50
2022-09-02T20:26:50.172Z,15.50
2022-09-02T20:29:47.827Z,15.40
2022-09-02T20:32:35.316Z,15.40
2022-09-02T20:35:44.829Z,15.40
2022-09-02T20:38:20.036Z,15.30
2022-09-02T20:41:10.735Z,15.30
2022-09-02T20:43:45.271Z,15.20
2022-09-02T20:46:33.776Z,15.30
2022-09-02T20:49:27.307Z,15.30
2022-09-02T20:54:40.554Z,15.10
2022-09-02T21:10:03.980Z,14.90
2022-09-02T21:22:53.598Z,14.70
2022-09-02T21:25:38.039Z,14.80
2022-09-02T21:28:18.709Z,14.70
2022-09-02T21:30:50.933Z,14.80
2022-09-02T21:33:18.101Z,14.80
2022-09-02T21:35:56.449Z,14.80
2022-09-02T21:38:42.317Z,14.70
2022-09-02T21:44:11.295Z,14.70
2022-09-02T21:47:06.399Z,14.70
2022-09-02T21:50:30.032Z,14.70
2022-09-02T21:55:57.104Z,14.40
2022-09-02T22:04:31.284Z,14.40
2022-09-02T22:07:21.916Z,14.60
2022-09-02T22:10:01.184Z,14.40
2022-09-02T22:12:28.417Z,14.40
2022-09-02T22:17:33.189Z,14.40
2022-09-02T22:20:02.439Z,14.40
2022-09-02T22:22:38.824Z,14.30
2022-09-02T22:25:10.117Z,14.30
2022-09-02T22:27:46.906Z,14.40
2022-09-02T22:30:14.862Z,14.40
2022-09-02T22:32:47.923Z,14.40
2022-09-02T22:35:45.068Z,14.30
2022-09-02T22:38:26.572Z,14.40
2022-09-02T22:41:03.294Z,14.40
2022-09-02T22:52:10.764Z,14.20
2022-09-02T22:54:37.608Z,14.30
2022-09-02T23:02:31.855Z,14.30
2022-09-02T23:05:46.772Z,14.20
2022-09-02T23:11:07.018Z,14.00
2022-09-02T23:13:35.583Z,14.00
2022-09-02T23:19:17.257Z,14.00
2022-09-02T23:27:43.942Z,13.80
2022-09-02T23:30:12.093Z,13.80
2022-09-02T23:33:03.559Z,13.80
2022-09-02T23:35:48.096Z,13.80
2022-09-02T23:41:07.807Z,13.70
2022-09-02T23:43:34.704Z,13.70
2022-09-02T23:46:28.161Z,13.70
2022-09-02T23:49:10.027Z,13.60
2022-09-02T23:52:01.984Z,13.60
2022-09-02T23:54:50.764Z,13.60
2022-09-02T23:57:45.876Z,13.60
